Time;durP1;ratioP1;P1;durP2;ratioP2;P2;SDS_P1;SDS_P2;PMS_P1;PMS_P2;Temp;Humidity;BMP_temperature;BMP_pressure;BME280_temperature;BME280_humidity;BME280_pressure;Samples;Min_cycle;Max_cycle;Signal;HPM_P1;HPM_P2
2021/11/13 00:01:09;;;;;;;44.20;22.35;;;;;;;;;;5048169;28;20032;-68
2021/11/13 00:03:35;;;;;;;44.25;22.98;;;;;;;;;;5046769;28;20519;-65
2021/11/13 00:06:00;;;;;;;48.95;23.88;;;;;;;;;;5052204;28;20032;-65
2021/11/13 00:08:25;;;;;;;42.10;22.23;;;;;;;;;;5051636;28;20055;-66
2021/11/13 00:10:50;;;;;;;42.17;21.65;;;;;;;;;;5049635;28;20040;-66
2021/11/13 00:13:18;;;;;;;52.13;22.80;;;;;;;;;;5047577;28;20033;-64
2021/11/13 00:15:44;;;;;;;46.13;21.33;;;;;;;;;;5050609;28;20037;-66
2021/11/13 00:18:10;;;;;;;44.10;21.55;;;;;;;;;;5052170;28;20082;-67
2021/11/13 00:20:35;;;;;;;44.65;23.08;;;;;;;;;;5050682;28;20107;-68
2021/11/13 00:23:01;;;;;;;48.03;23.25;;;;;;;;;;5048654;28;20128;-66
2021/11/13 00:25:26;;;;;;;45.67;21.58;;;;;;;;;;5051536;28;20033;-66
2021/11/13 00:27:52;;;;;;;50.97;21.15;;;;;;;;;;5051418;28;20105;-67
2021/11/13 00:30:17;;;;;;;44.88;21.55;;;;;;;;;;5050586;28;20040;-66
2021/11/13 00:32:43;;;;;;;53.47;23.45;;;;;;;;;;5049557;28;20095;-67
2021/11/13 00:35:08;;;;;;;50.50;22.70;;;;;;;;;;5047851;28;20049;-68
2021/11/13 00:37:34;;;;;;;46.45;23.35;;;;;;;;;;5048990;28;20055;-69
2021/11/13 00:40:00;;;;;;;58.58;24.27;;;;;;;;;;5043987;28;20100;-70
2021/11/13 00:42:25;;;;;;;37.33;19.90;;;;;;;;;;5041594;28;20437;-69
2021/11/13 00:44:50;;;;;;;47.17;21.95;;;;;;;;;;5042844;28;20037;-70
2021/11/13 00:47:16;;;;;;;43.72;21.77;;;;;;;;;;5040606;28;20539;-69
2021/11/13 00:49:41;;;;;;;49.53;22.02;;;;;;;;;;5051460;28;20025;-70
2021/11/13 00:52:07;;;;;;;41.92;21.30;;;;;;;;;;5044959;28;20025;-69
2021/11/13 00:54:33;;;;;;;43.67;21.40;;;;;;;;;;5042970;28;20029;-69
2021/11/13 00:56:59;;;;;;;47.60;21.42;;;;;;;;;;5047048;28;20541;-70
2021/11/13 00:59:24;;;;;;;52.42;22.20;;;;;;;;;;5050150;28;20128;-70
2021/11/13 01:01:49;;;;;;;45.25;20.77;;;;;;;;;;5047503;28;20025;-69
2021/11/13 01:04:14;;;;;;;42.85;21.17;;;;;;;;;;5046313;28;20032;-70
2021/11/13 01:06:40;;;;;;;43.85;21.98;;;;;;;;;;5049719;28;20063;-69
2021/11/13 01:09:05;;;;;;;42.67;21.48;;;;;;;;;;5051498;28;20036;-70
2021/11/13 01:11:30;;;;;;;38.10;21.15;;;;;;;;;;5048263;28;20499;-70
2021/11/13 01:13:57;;;;;;;45.70;21.98;;;;;;;;;;5045141;28;20021;-69
2021/11/13 01:16:22;;;;;;;59.35;22.02;;;;;;;;;;5049349;28;20165;-69
2021/11/13 01:18:48;;;;;;;44.90;22.05;;;;;;;;;;5044389;28;20112;-69
2021/11/13 01:21:13;;;;;;;43.03;20.13;;;;;;;;;;5049708;28;20040;-69
2021/11/13 01:23:38;;;;;;;36.20;20.45;;;;;;;;;;5038792;28;20084;-69
2021/11/13 01:26:04;;;;;;;41.63;20.65;;;;;;;;;;5048496;28;20032;-70
2021/11/13 01:28:29;;;;;;;45.78;21.45;;;;;;;;;;5049915;28;20017;-70
2021/11/13 01:30:55;;;;;;;42.75;21.27;;;;;;;;;;5051754;28;20028;-69
2021/11/13 01:33:20;;;;;;;37.78;19.45;;;;;;;;;;5043138;28;20487;-71
2021/11/13 01:35:45;;;;;;;35.17;19.10;;;;;;;;;;5046580;28;20033;-70
2021/11/13 01:38:10;;;;;;;42.75;21.65;;;;;;;;;;5049515;28;20033;-70
2021/11/13 01:40:36;;;;;;;34.38;20.27;;;;;;;;;;5045533;28;20149;-70
2021/11/13 01:43:01;;;;;;;34.17;20.23;;;;;;;;;;5047224;28;20457;-69
2021/11/13 01:45:27;;;;;;;37.15;19.70;;;;;;;;;;5046634;28;20036;-70
2021/11/13 01:47:52;;;;;;;34.50;19.98;;;;;;;;;;5041078;28;20017;-69
2021/11/13 01:50:19;;;;;;;37.00;20.48;;;;;;;;;;5049209;28;20032;-69
2021/11/13 01:52:45;;;;;;;37.72;19.77;;;;;;;;;;5044151;28;20028;-70
2021/11/13 01:55:11;;;;;;;36.00;20.10;;;;;;;;;;5045295;28;20178;-69
2021/11/13 01:57:47;;;;;;;36.40;20.10;;;;;;;;;;5047823;28;20033;-69
2021/11/13 02:00:14;;;;;;;38.22;20.65;;;;;;;;;;5043548;28;20067;-70
2021/11/13 02:02:40;;;;;;;41.53;19.60;;;;;;;;;;5046249;28;20024;-69
2021/11/13 02:05:05;;;;;;;41.92;20.23;;;;;;;;;;5043935;28;20127;-69
2021/11/13 02:07:30;;;;;;;46.53;23.00;;;;;;;;;;5044235;28;20068;-69
2021/11/13 02:09:56;;;;;;;30.15;18.23;;;;;;;;;;5049379;28;20021;-69
2021/11/13 02:12:21;;;;;;;43.53;19.73;;;;;;;;;;5045910;28;20037;-69
2021/11/13 02:14:46;;;;;;;33.03;18.48;;;;;;;;;;5048560;28;20090;-69
2021/11/13 02:17:11;;;;;;;34.75;18.65;;;;;;;;;;5044398;28;20405;-69
2021/11/13 02:19:38;;;;;;;32.45;18.67;;;;;;;;;;5047289;28;20219;-70
2021/11/13 02:22:04;;;;;;;36.92;19.33;;;;;;;;;;5049041;28;20060;-70
2021/11/13 02:24:29;;;;;;;29.33;18.10;;;;;;;;;;5048974;28;20491;-70
2021/11/13 02:26:54;;;;;;;46.95;17.02;;;;;;;;;;5048499;28;20120;-70
2021/11/13 02:29:20;;;;;;;46.40;18.80;;;;;;;;;;5045643;28;20591;-70
2021/11/13 02:31:46;;;;;;;31.25;17.45;;;;;;;;;;5047895;28;20017;-70
2021/11/13 02:34:11;;;;;;;32.17;16.33;;;;;;;;;;5048685;28;20025;-70
2021/11/13 02:36:37;;;;;;;39.50;17.92;;;;;;;;;;5043676;28;20025;-70
2021/11/13 02:39:05;;;;;;;33.45;17.55;;;;;;;;;;5043764;28;20503;-69
2021/11/13 02:41:30;;;;;;;32.30;16.10;;;;;;;;;;5044935;28;20469;-70
2021/11/13 02:43:57;;;;;;;50.28;18.50;;;;;;;;;;5049921;28;20054;-70
2021/11/13 02:46:23;;;;;;;30.15;17.92;;;;;;;;;;5050902;28;20338;-69
2021/11/13 02:48:48;;;;;;;37.92;17.38;;;;;;;;;;5046612;28;20055;-69
2021/11/13 02:51:13;;;;;;;85.15;18.52;;;;;;;;;;5048527;28;20028;-69
2021/11/13 02:53:39;;;;;;;26.65;15.43;;;;;;;;;;5040159;28;20086;-69
2021/11/13 02:56:06;;;;;;;60.15;18.85;;;;;;;;;;5046835;28;20192;-70
2021/11/13 02:58:32;;;;;;;46.20;17.48;;;;;;;;;;5037326;28;20732;-69
2021/11/13 03:01:16;;;;;;;30.77;15.30;;;;;;;;;;5050605;28;20565;-69
2021/11/13 03:03:41;;;;;;;45.05;17.83;;;;;;;;;;5043894;28;20078;-69
2021/11/13 03:06:08;;;;;;;40.22;16.90;;;;;;;;;;5048140;28;20065;-70
2021/11/13 03:08:34;;;;;;;29.73;15.48;;;;;;;;;;5041303;28;20505;-70
2021/11/13 03:11:00;;;;;;;33.55;16.58;;;;;;;;;;5047543;28;20129;-69
2021/11/13 03:13:29;;;;;;;45.53;17.23;;;;;;;;;;5047369;28;20468;-69
2021/11/13 03:15:54;;;;;;;25.58;14.18;;;;;;;;;;5046990;28;20584;-69
2021/11/13 03:18:20;;;;;;;28.88;16.05;;;;;;;;;;5039078;28;20021;-70
2021/11/13 03:20:45;;;;;;;63.03;17.85;;;;;;;;;;5048338;28;20127;-70
2021/11/13 03:23:11;;;;;;;33.35;17.05;;;;;;;;;;5045635;28;20387;-70
2021/11/13 03:25:44;;;;;;;27.98;16.13;;;;;;;;;;5044998;28;20121;-70
2021/11/13 03:28:10;;;;;;;44.35;17.02;;;;;;;;;;5049203;28;20411;-70
2021/11/13 03:30:36;;;;;;;59.10;17.25;;;;;;;;;;5044950;28;20056;-69
2021/11/13 03:33:02;;;;;;;59.17;17.00;;;;;;;;;;5047817;28;20017;-69
2021/11/13 03:35:28;;;;;;;52.60;16.55;;;;;;;;;;5046517;28;20033;-69
2021/11/13 03:37:54;;;;;;;53.70;15.75;;;;;;;;;;5045936;28;20362;-70
2021/11/13 03:40:21;;;;;;;36.95;13.45;;;;;;;;;;5046242;28;20021;-69
2021/11/13 03:42:46;;;;;;;43.85;14.10;;;;;;;;;;5045803;28;20109;-70
2021/11/13 03:45:11;;;;;;;57.63;14.88;;;;;;;;;;5051724;28;20100;-68
2021/11/13 03:47:37;;;;;;;51.17;14.05;;;;;;;;;;5048316;28;20013;-70
2021/11/13 03:50:03;;;;;;;43.75;14.50;;;;;;;;;;5047902;28;20043;-70
2021/11/13 03:52:28;;;;;;;30.27;14.45;;;;;;;;;;5046293;28;20026;-69
2021/11/13 03:54:53;;;;;;;41.10;15.95;;;;;;;;;;5051469;28;20031;-69
2021/11/13 03:57:18;;;;;;;58.95;17.88;;;;;;;;;;5051897;28;20495;-69
2021/11/13 03:59:44;;;;;;;37.78;14.35;;;;;;;;;;5048417;28;20048;-71
2021/11/13 04:02:10;;;;;;;34.17;15.77;;;;;;;;;;5047424;28;20040;-69
2021/11/13 04:04:39;;;;;;;48.10;17.70;;;;;;;;;;5052259;28;20013;-70
2021/11/13 04:07:05;;;;;;;36.88;13.85;;;;;;;;;;5050085;28;20104;-70
2021/11/13 04:09:31;;;;;;;39.08;17.60;;;;;;;;;;5051013;28;20116;-69
2021/11/13 04:11:56;;;;;;;40.03;16.10;;;;;;;;;;5047538;28;20029;-71
2021/11/13 04:14:22;;;;;;;46.20;16.13;;;;;;;;;;5050238;28;20029;-69
2021/11/13 04:16:47;;;;;;;38.30;16.58;;;;;;;;;;5049831;28;20120;-69
2021/11/13 04:19:12;;;;;;;89.28;18.58;;;;;;;;;;5051200;28;20082;-70
2021/11/13 04:21:38;;;;;;;69.97;19.98;;;;;;;;;;5050385;28;20023;-68
2021/11/13 04:24:04;;;;;;;42.78;16.67;;;;;;;;;;5046527;28;20096;-69
2021/11/13 04:26:29;;;;;;;46.60;17.88;;;;;;;;;;5046446;28;20040;-69
2021/11/13 04:28:54;;;;;;;53.92;18.48;;;;;;;;;;5048651;28;20809;-68
2021/11/13 04:31:20;;;;;;;38.10;17.48;;;;;;;;;;5052822;28;20044;-70
2021/11/13 04:33:45;;;;;;;42.85;17.60;;;;;;;;;;5046421;28;20468;-70
2021/11/13 04:36:24;;;;;;;44.22;17.27;;;;;;;;;;5051259;28;20051;-70
2021/11/13 04:38:50;;;;;;;64.47;18.25;;;;;;;;;;5050243;28;20041;-71
2021/11/13 04:41:15;;;;;;;64.32;19.38;;;;;;;;;;5051183;28;20056;-70
2021/11/13 04:43:41;;;;;;;36.70;16.02;;;;;;;;;;5048771;28;20025;-70
2021/11/13 04:46:06;;;;;;;63.13;19.92;;;;;;;;;;5050821;28;20029;-69
2021/11/13 04:48:31;;;;;;;69.05;18.30;;;;;;;;;;5044714;28;20029;-70
2021/11/13 04:51:01;;;;;;;89.32;19.67;;;;;;;;;;5050978;28;20186;-70
2021/11/13 04:53:26;;;;;;;;;;;;;;;;;;5049835;28;20052;-69
2021/11/13 04:55:51;;;;;;;40.95;17.38;;;;;;;;;;5048400;28;19975;-69
2021/11/13 04:58:16;;;;;;;42.45;19.33;;;;;;;;;;5047119;28;20779;-68
2021/11/13 05:00:42;;;;;;;34.17;17.85;;;;;;;;;;5051475;28;20097;-68
2021/11/13 05:03:07;;;;;;;59.70;19.27;;;;;;;;;;5050583;28;20453;-70
2021/11/13 05:05:32;;;;;;;50.55;19.17;;;;;;;;;;5046064;28;20024;-68
2021/11/13 05:07:57;;;;;;;45.38;19.30;;;;;;;;;;5048179;28;20021;-69
2021/11/13 05:10:23;;;;;;;56.40;19.80;;;;;;;;;;5049992;28;20464;-68
2021/11/13 05:12:48;;;;;;;32.67;17.55;;;;;;;;;;5048677;28;20013;-69
2021/11/13 05:15:13;;;;;;;47.28;20.35;;;;;;;;;;5046581;28;20078;-70
2021/11/13 05:17:39;;;;;;;32.60;18.08;;;;;;;;;;5049539;28;20021;-71
2021/11/13 05:20:07;;;;;;;43.45;17.15;;;;;;;;;;5044619;28;20530;-69
2021/11/13 05:22:33;;;;;;;42.35;18.70;;;;;;;;;;5047184;28;20392;-69
2021/11/13 05:24:58;;;;;;;43.80;18.70;;;;;;;;;;5049997;28;20108;-71
2021/11/13 05:27:23;;;;;;;45.53;17.67;;;;;;;;;;5046718;28;20416;-70
2021/11/13 05:29:48;;;;;;;35.53;17.88;;;;;;;;;;5042065;28;20034;-70
2021/11/13 05:32:14;;;;;;;57.33;17.75;;;;;;;;;;5048884;28;20059;-70
2021/11/13 05:34:40;;;;;;;45.05;17.40;;;;;;;;;;5043480;28;20017;-70
2021/11/13 05:37:05;;;;;;;66.28;20.73;;;;;;;;;;5045184;28;20106;-70
2021/11/13 05:39:30;;;;;;;46.67;18.33;;;;;;;;;;5050528;28;20062;-70
2021/11/13 05:41:55;;;;;;;57.97;18.08;;;;;;;;;;5046263;28;20140;-70
2021/11/13 05:44:21;;;;;;;45.00;16.98;;;;;;;;;;5044926;28;20009;-69
2021/11/13 05:46:50;;;;;;;41.13;18.45;;;;;;;;;;5045917;28;20022;-70
2021/11/13 05:49:15;;;;;;;;;;;;;;;;;;5049196;28;20108;-70
2021/11/13 05:51:40;;;;;;;54.85;18.55;;;;;;;;;;5049079;28;20019;-70
2021/11/13 05:54:06;;;;;;;94.45;21.05;;;;;;;;;;5047090;28;20271;-70
2021/11/13 05:56:31;;;;;;;58.92;18.27;;;;;;;;;;5049325;28;20100;-69
2021/11/13 05:58:56;;;;;;;49.10;16.85;;;;;;;;;;5048382;28;20116;-69
2021/11/13 06:01:22;;;;;;;80.75;19.27;;;;;;;;;;5048577;28;20029;-69
2021/11/13 06:03:47;;;;;;;90.85;21.65;;;;;;;;;;5046376;28;20029;-70
2021/11/13 06:06:12;;;;;;;62.65;17.27;;;;;;;;;;5049209;28;20041;-71
2021/11/13 06:08:37;;;;;;;70.50;19.50;;;;;;;;;;5047388;28;20053;-71
2021/11/13 06:11:02;;;;;;;91.30;19.92;;;;;;;;;;5048355;28;20050;-72
2021/11/13 06:13:28;;;;;;;47.80;17.42;;;;;;;;;;5042614;28;20025;-70
2021/11/13 06:15:53;;;;;;;45.05;18.70;;;;;;;;;;5048283;28;20036;-70
2021/11/13 06:18:18;;;;;;;49.35;16.92;;;;;;;;;;5048372;28;20536;-71
2021/11/13 06:20:43;;;;;;;43.03;16.98;;;;;;;;;;5046846;28;20025;-70
2021/11/13 06:23:10;;;;;;;61.95;19.23;;;;;;;;;;5043168;28;20192;-71
2021/11/13 06:25:35;;;;;;;34.95;17.92;;;;;;;;;;5043914;28;20438;-70
2021/11/13 06:28:01;;;;;;;38.97;18.60;;;;;;;;;;5047830;28;20104;-71
2021/11/13 06:30:28;;;;;;;46.63;18.50;;;;;;;;;;5049793;28;20009;-71
2021/11/13 06:32:53;;;;;;;46.35;19.92;;;;;;;;;;5043622;28;20028;-71
2021/11/13 06:35:19;;;;;;;45.30;19.50;;;;;;;;;;5043282;28;20033;-71
2021/11/13 06:37:44;;;;;;;37.17;18.85;;;;;;;;;;5039370;28;20029;-71
2021/11/13 06:40:10;;;;;;;39.08;18.05;;;;;;;;;;5044742;28;20024;-70
2021/11/13 06:42:37;;;;;;;34.05;18.17;;;;;;;;;;5045125;28;20044;-71
2021/11/13 06:45:03;;;;;;;36.10;20.42;;;;;;;;;;5047587;28;20040;-70
2021/11/13 06:47:28;;;;;;;41.50;20.92;;;;;;;;;;5042131;28;20023;-70
2021/11/13 06:49:53;;;;;;;38.67;19.50;;;;;;;;;;5042637;28;20028;-70
2021/11/13 06:52:18;;;;;;;34.65;19.33;;;;;;;;;;5038262;28;20029;-70
2021/11/13 06:54:44;;;;;;;35.42;19.35;;;;;;;;;;5038279;28;20021;-69
2021/11/13 06:57:09;;;;;;;36.38;19.80;;;;;;;;;;5039574;28;20057;-70
2021/11/13 06:59:34;;;;;;;36.45;17.23;;;;;;;;;;5042927;28;20041;-70
2021/11/13 07:01:59;;;;;;;34.70;17.88;;;;;;;;;;5042748;28;20616;-69
2021/11/13 07:04:25;;;;;;;28.98;16.92;;;;;;;;;;5041757;28;20487;-70
2021/11/13 07:06:50;;;;;;;43.83;19.58;;;;;;;;;;5040321;28;20104;-71
2021/11/13 07:09:15;;;;;;;27.38;16.60;;;;;;;;;;5036049;28;20134;-71
2021/11/13 07:11:41;;;;;;;39.10;17.35;;;;;;;;;;5038488;28;20514;-71
2021/11/13 07:14:06;;;;;;;29.50;15.90;;;;;;;;;;5039119;28;20036;-71
2021/11/13 07:16:31;;;;;;;27.40;15.90;;;;;;;;;;5040864;28;20045;-69
2021/11/13 07:18:56;;;;;;;25.10;14.75;;;;;;;;;;5037482;28;20438;-70
2021/11/13 07:21:22;;;;;;;29.70;14.18;;;;;;;;;;5042292;28;20021;-71
2021/11/13 07:23:48;;;;;;;26.70;14.23;;;;;;;;;;5040427;28;20468;-71
2021/11/13 07:26:14;;;;;;;25.70;13.70;;;;;;;;;;5040885;28;20052;-70
2021/11/13 07:28:45;;;;;;;27.55;13.98;;;;;;;;;;5033713;28;20021;-70
2021/11/13 07:31:14;;;;;;;22.25;12.75;;;;;;;;;;5040295;28;20757;-70
2021/11/13 07:33:40;;;;;;;21.73;13.48;;;;;;;;;;5043423;28;20338;-69
2021/11/13 07:36:05;;;;;;;24.90;13.93;;;;;;;;;;5040286;28;20082;-70
2021/11/13 07:38:31;;;;;;;18.35;12.40;;;;;;;;;;5047030;28;20481;-70
2021/11/13 07:40:56;;;;;;;21.20;12.98;;;;;;;;;;5044518;28;20156;-70
2021/11/13 07:43:21;;;;;;;20.35;12.00;;;;;;;;;;5043447;28;20104;-70
2021/11/13 07:45:46;;;;;;;18.55;11.32;;;;;;;;;;5046633;28;20087;-70
2021/11/13 07:48:12;;;;;;;19.33;11.32;;;;;;;;;;5043397;28;20417;-72
2021/11/13 07:50:37;;;;;;;16.95;11.13;;;;;;;;;;5048183;28;20131;-72
2021/11/13 07:53:06;;;;;;;15.93;10.90;;;;;;;;;;5045580;28;20100;-70
2021/11/13 07:55:31;;;;;;;14.50;10.88;;;;;;;;;;5045727;28;20072;-71
2021/11/13 07:57:57;;;;;;;12.82;8.80;;;;;;;;;;5049096;28;20025;-71
2021/11/13 08:00:22;;;;;;;13.18;9.20;;;;;;;;;;5045165;28;20623;-71
2021/11/13 08:02:48;;;;;;;13.38;9.07;;;;;;;;;;5042407;28;20471;-69
2021/11/13 08:05:14;;;;;;;12.95;9.85;;;;;;;;;;5048198;28;20021;-70
2021/11/13 08:07:40;;;;;;;11.60;8.63;;;;;;;;;;5045648;28;20046;-70
2021/11/13 08:10:06;;;;;;;13.80;9.52;;;;;;;;;;5048690;28;20116;-71
2021/11/13 08:12:31;;;;;;;12.90;9.18;;;;;;;;;;5046996;28;20039;-70
2021/11/13 08:14:56;;;;;;;12.60;8.82;;;;;;;;;;5043320;28;20425;-71
2021/11/13 08:17:22;;;;;;;13.80;9.48;;;;;;;;;;5048845;28;20142;-70
2021/11/13 08:19:47;;;;;;;10.75;8.30;;;;;;;;;;5042721;28;20037;-71
2021/11/13 08:22:13;;;;;;;11.10;8.00;;;;;;;;;;5046785;28;20094;-70
2021/11/13 08:24:38;;;;;;;10.65;7.65;;;;;;;;;;5050725;28;20020;-72
2021/11/13 08:27:04;;;;;;;9.98;7.57;;;;;;;;;;5051989;28;20029;-70
2021/11/13 08:29:29;;;;;;;11.23;8.40;;;;;;;;;;5048464;28;20108;-70
2021/11/13 08:31:54;;;;;;;9.93;8.00;;;;;;;;;;5050341;28;20079;-71
2021/11/13 08:34:19;;;;;;;10.77;8.55;;;;;;;;;;5050355;28;20052;-70
2021/11/13 08:36:44;;;;;;;10.82;8.18;;;;;;;;;;5050670;28;20071;-70
2021/11/13 08:39:10;;;;;;;11.40;7.45;;;;;;;;;;5051481;28;20021;-72
2021/11/13 08:41:35;;;;;;;10.90;8.02;;;;;;;;;;5048150;28;20112;-70
2021/11/13 08:44:02;;;;;;;11.57;7.72;;;;;;;;;;5050017;28;20099;-71
2021/11/13 08:46:29;;;;;;;11.05;8.05;;;;;;;;;;5049342;28;20021;-69
2021/11/13 08:48:54;;;;;;;11.77;8.27;;;;;;;;;;5044657;28;20048;-70
2021/11/13 08:51:19;;;;;;;11.07;7.72;;;;;;;;;;5050535;28;20060;-70
2021/11/13 08:53:49;;;;;;;11.25;8.07;;;;;;;;;;5051439;28;20460;-70
2021/11/13 08:56:14;;;;;;;11.75;8.18;;;;;;;;;;5044468;28;20449;-69
2021/11/13 08:58:39;;;;;;;12.65;8.40;;;;;;;;;;5049818;28;20064;-70
2021/11/13 09:01:05;;;;;;;10.50;7.95;;;;;;;;;;5051445;28;20492;-70
2021/11/13 09:03:33;;;;;;;10.07;7.47;;;;;;;;;;5050874;28;20057;-70
2021/11/13 09:06:00;;;;;;;11.32;7.78;;;;;;;;;;5050819;28;20130;-71
2021/11/13 09:08:25;;;;;;;10.88;7.43;;;;;;;;;;5042327;28;20036;-71
2021/11/13 09:10:51;;;;;;;10.77;8.15;;;;;;;;;;5049451;28;20024;-70
2021/11/13 09:13:18;;;;;;;10.23;7.53;;;;;;;;;;5045394;28;20412;-70
2021/11/13 09:15:44;;;;;;;10.88;7.82;;;;;;;;;;5050912;28;20028;-71
2021/11/13 09:18:10;;;;;;;11.98;8.48;;;;;;;;;;5050893;28;20427;-70
2021/11/13 09:20:36;;;;;;;11.75;8.48;;;;;;;;;;5047611;28;20078;-70
2021/11/13 09:23:02;;;;;;;13.60;8.82;;;;;;;;;;5050854;28;20028;-63
2021/11/13 09:25:27;;;;;;;10.95;7.88;;;;;;;;;;5044431;28;20009;-63
2021/11/13 09:27:52;;;;;;;11.38;8.00;;;;;;;;;;5049808;28;20510;-63
2021/11/13 09:30:21;;;;;;;12.95;8.57;;;;;;;;;;5049679;28;20024;-63
2021/11/13 09:32:47;;;;;;;12.60;8.90;;;;;;;;;;5048870;28;20016;-65
2021/11/13 09:35:14;;;;;;;12.32;8.38;;;;;;;;;;5048770;28;20416;-63
2021/11/13 09:37:39;;;;;;;14.95;9.68;;;;;;;;;;5049473;28;20094;-65
2021/11/13 09:40:05;;;;;;;13.63;8.80;;;;;;;;;;5049148;28;20465;-64
2021/11/13 09:42:31;;;;;;;12.38;9.10;;;;;;;;;;5039784;28;20083;-64
2021/11/13 09:44:56;;;;;;;12.35;8.55;;;;;;;;;;5050097;28;20032;-64
2021/11/13 09:47:21;;;;;;;12.90;9.13;;;;;;;;;;5046053;28;20516;-64
2021/11/13 09:49:47;;;;;;;13.45;8.85;;;;;;;;;;5041722;28;20282;-64
2021/11/13 09:52:13;;;;;;;12.02;8.07;;;;;;;;;;5046062;28;20033;-64
2021/11/13 09:54:39;;;;;;;11.27;8.20;;;;;;;;;;5048327;28;20029;-63
2021/11/13 09:57:05;;;;;;;13.00;8.70;;;;;;;;;;5049717;28;20033;-63
2021/11/13 09:59:30;;;;;;;12.82;8.73;;;;;;;;;;5044407;28;20114;-63
2021/11/13 10:01:56;;;;;;;12.32;9.07;;;;;;;;;;5046746;28;20025;-64
2021/11/13 10:04:23;;;;;;;12.38;8.20;;;;;;;;;;5046156;28;20029;-64
2021/11/13 10:06:48;;;;;;;12.48;8.40;;;;;;;;;;5048790;28;20063;-64
2021/11/13 10:09:13;;;;;;;13.02;9.30;;;;;;;;;;5045204;28;20106;-63
2021/11/13 10:11:44;;;;;;;11.57;8.32;;;;;;;;;;5048833;28;20130;-63
2021/11/13 10:14:10;;;;;;;13.85;9.00;;;;;;;;;;5049252;28;20043;-65
2021/11/13 10:16:36;;;;;;;11.35;8.63;;;;;;;;;;5048731;28;20051;-65
2021/11/13 10:19:09;;;;;;;11.70;9.07;;;;;;;;;;5048681;28;20051;-64
2021/11/13 10:21:36;;;;;;;11.25;8.32;;;;;;;;;;5041840;28;20516;-65
2021/11/13 10:24:10;;;;;;;14.32;9.40;;;;;;;;;;5048496;28;20075;-65
2021/11/13 10:26:37;;;;;;;13.05;8.95;;;;;;;;;;5046817;28;20020;-67
2021/11/13 10:29:05;;;;;;;12.55;9.05;;;;;;;;;;5048636;28;20074;-65
2021/11/13 10:31:43;;;;;;;12.13;8.70;;;;;;;;;;5049321;28;20411;-66
2021/11/13 10:34:10;;;;;;;12.18;8.40;;;;;;;;;;5049401;28;20021;-65
2021/11/13 10:36:36;;;;;;;12.68;8.70;;;;;;;;;;5046984;28;20488;-67
2021/11/13 10:39:02;;;;;;;14.75;9.52;;;;;;;;;;5046014;28;20101;-65
2021/11/13 10:41:27;;;;;;;14.95;9.18;;;;;;;;;;5048013;28;20163;-64
2021/11/13 10:43:53;;;;;;;15.57;9.25;;;;;;;;;;5044801;28;20110;-64
2021/11/13 10:46:19;;;;;;;13.73;9.82;;;;;;;;;;5042645;28;20025;-63
2021/11/13 10:48:50;;;;;;;13.07;9.35;;;;;;;;;;5045112;28;20017;-64
2021/11/13 10:51:17;;;;;;;15.70;9.95;;;;;;;;;;5043352;28;20035;-63
2021/11/13 10:53:43;;;;;;;15.73;10.63;;;;;;;;;;5047910;28;20021;-63
2021/11/13 10:56:13;;;;;;;14.32;9.98;;;;;;;;;;5037431;28;20037;-63
2021/11/13 10:58:41;;;;;;;14.98;10.25;;;;;;;;;;5041941;28;20155;-64
2021/11/13 11:01:08;;;;;;;16.58;10.15;;;;;;;;;;5042274;28;20374;-64
2021/11/13 11:03:36;;;;;;;16.58;11.10;;;;;;;;;;5042298;28;20024;-64
2021/11/13 11:06:01;;;;;;;15.25;10.35;;;;;;;;;;5041508;28;20033;-64
2021/11/13 11:08:36;;;;;;;17.15;11.25;;;;;;;;;;5046205;28;20078;-64
2021/11/13 11:11:22;;;;;;;16.85;11.10;;;;;;;;;;5037339;28;20702;-64
2021/11/13 11:13:50;;;;;;;16.10;10.50;;;;;;;;;;5043286;28;20033;-64
2021/11/13 11:16:32;;;;;;;16.77;10.80;;;;;;;;;;5048623;28;20055;-65
2021/11/13 11:19:06;;;;;;;18.25;11.60;;;;;;;;;;5047360;28;20496;-64
2021/11/13 11:21:49;;;;;;;16.80;10.93;;;;;;;;;;5045748;28;20021;-63
2021/11/13 11:24:16;;;;;;;16.02;10.70;;;;;;;;;;5048493;28;20025;-65
2021/11/13 11:26:42;;;;;;;15.30;10.85;;;;;;;;;;5048278;28;20047;-65
2021/11/13 11:29:08;;;;;;;18.02;11.60;;;;;;;;;;5048530;28;20410;-64
2021/11/13 11:31:45;;;;;;;18.63;11.68;;;;;;;;;;5044588;28;20033;-65
2021/11/13 11:34:19;;;;;;;16.05;11.05;;;;;;;;;;5048178;28;20041;-64
2021/11/13 11:36:44;;;;;;;15.27;10.75;;;;;;;;;;5041976;28;20127;-64
2021/11/13 11:39:10;;;;;;;17.42;11.30;;;;;;;;;;5048857;28;20096;-64
2021/11/13 11:41:36;;;;;;;16.98;11.10;;;;;;;;;;5045921;28;20147;-64
2021/11/13 11:44:01;;;;;;;18.42;11.20;;;;;;;;;;5048450;28;20021;-64
2021/11/13 11:46:28;;;;;;;15.82;11.23;;;;;;;;;;5046809;28;20481;-62
2021/11/13 11:48:54;;;;;;;15.48;10.63;;;;;;;;;;5042040;28;20026;-64
2021/11/13 11:51:19;;;;;;;18.17;11.57;;;;;;;;;;5045933;28;20105;-65
2021/11/13 11:53:44;;;;;;;16.05;11.40;;;;;;;;;;5048405;28;20059;-64
2021/11/13 11:56:09;;;;;;;17.85;11.35;;;;;;;;;;5044967;28;20156;-64
2021/11/13 11:58:34;;;;;;;17.73;11.73;;;;;;;;;;5047705;28;20024;-64
2021/11/13 12:01:01;;;;;;;15.77;11.65;;;;;;;;;;5054952;28;20051;-64
2021/11/13 12:03:30;;;;;;;20.15;12.50;;;;;;;;;;5051497;28;20074;-65
2021/11/13 12:05:55;;;;;;;18.20;12.32;;;;;;;;;;5052059;28;20488;-65
2021/11/13 12:08:24;;;;;;;16.75;11.40;;;;;;;;;;5051265;28;20057;-64
2021/11/13 12:10:50;;;;;;;18.10;13.00;;;;;;;;;;5041582;28;20100;-64
2021/11/13 12:13:29;;;;;;;18.38;11.82;;;;;;;;;;5049189;28;20146;-64
2021/11/13 12:15:58;;;;;;;18.02;12.02;;;;;;;;;;5051153;28;20098;-64
2021/11/13 12:18:24;;;;;;;18.30;12.40;;;;;;;;;;5050113;28;20418;-69
2021/11/13 12:20:51;;;;;;;18.35;13.27;;;;;;;;;;5048211;28;20901;-64
2021/11/13 12:23:26;;;;;;;18.15;12.23;;;;;;;;;;5049828;28;20184;-65
2021/11/13 12:25:56;;;;;;;18.58;12.55;;;;;;;;;;5047630;28;20039;-64
2021/11/13 12:28:22;;;;;;;18.40;12.85;;;;;;;;;;5039713;28;20017;-64
2021/11/13 12:31:05;;;;;;;17.45;11.95;;;;;;;;;;5045259;28;20031;-64
2021/11/13 12:33:30;;;;;;;19.00;12.73;;;;;;;;;;5051140;28;20029;-64
2021/11/13 12:36:00;;;;;;;17.52;11.60;;;;;;;;;;5051026;28;20098;-64
2021/11/13 12:38:37;;;;;;;18.25;12.65;;;;;;;;;;5049807;28;20577;-63
2021/11/13 12:41:05;;;;;;;20.55;13.15;;;;;;;;;;5050448;28;20032;-65
2021/11/13 12:43:58;;;;;;;18.85;12.65;;;;;;;;;;5051574;28;20025;-65
2021/11/13 12:46:24;;;;;;;20.20;13.75;;;;;;;;;;5046878;28;20888;-64
2021/11/13 12:48:50;;;;;;;18.10;12.93;;;;;;;;;;5049915;28;20096;-62
2021/11/13 12:51:19;;;;;;;22.35;13.07;;;;;;;;;;5049367;28;20056;-64
2021/11/13 12:53:53;;;;;;;19.52;13.00;;;;;;;;;;5051374;28;20115;-65
2021/11/13 12:56:37;;;;;;;23.10;14.15;;;;;;;;;;5043639;28;20037;-64
2021/11/13 12:59:02;;;;;;;20.23;13.52;;;;;;;;;;5044547;28;20496;-64
2021/11/13 13:01:27;;;;;;;21.23;13.93;;;;;;;;;;5048412;28;20041;-64
2021/11/13 13:03:58;;;;;;;20.80;13.93;;;;;;;;;;5045803;28;20025;-64
2021/11/13 13:06:23;;;;;;;23.27;14.40;;;;;;;;;;5051102;28;20043;-64
2021/11/13 13:08:49;;;;;;;22.05;14.38;;;;;;;;;;5049997;28;20476;-63
2021/11/13 13:11:14;;;;;;;20.38;13.30;;;;;;;;;;5047439;28;20013;-64
2021/11/13 13:13:39;;;;;;;20.83;14.05;;;;;;;;;;5045171;28;20033;-66
2021/11/13 13:16:06;;;;;;;20.83;14.02;;;;;;;;;;5051052;28;20021;-64
2021/11/13 13:18:32;;;;;;;23.17;14.30;;;;;;;;;;5046842;28;20020;-64
2021/11/13 13:20:57;;;;;;;20.70;13.15;;;;;;;;;;5047888;28;20032;-64
2021/11/13 13:23:24;;;;;;;24.77;15.68;;;;;;;;;;5049800;28;20029;-63
2021/11/13 13:25:53;;;;;;;20.58;13.50;;;;;;;;;;5043792;28;20428;-64
2021/11/13 13:28:19;;;;;;;22.88;14.57;;;;;;;;;;5045659;28;20025;-63
2021/11/13 13:30:45;;;;;;;22.35;14.57;;;;;;;;;;5048700;28;20024;-63
2021/11/13 13:33:10;;;;;;;20.45;14.18;;;;;;;;;;5046446;28;20025;-63
2021/11/13 13:35:37;;;;;;;22.92;14.15;;;;;;;;;;5040344;28;20469;-63
2021/11/13 13:38:12;;;;;;;22.63;15.23;;;;;;;;;;5054214;28;20028;-63
2021/11/13 13:40:37;;;;;;;23.00;14.70;;;;;;;;;;5043145;28;20020;-63
2021/11/13 13:43:18;;;;;;;23.83;14.75;;;;;;;;;;5048600;28;20021;-64
2021/11/13 13:45:51;;;;;;;22.65;14.68;;;;;;;;;;5040891;28;20037;-64
2021/11/13 13:48:17;;;;;;;23.38;15.02;;;;;;;;;;5039351;28;20084;-64
2021/11/13 13:50:47;;;;;;;22.75;15.15;;;;;;;;;;5047101;28;20060;-64
2021/11/13 13:53:12;;;;;;;23.60;15.73;;;;;;;;;;5046076;28;20059;-63
2021/11/13 13:55:38;;;;;;;22.65;14.82;;;;;;;;;;5046755;28;20056;-63
2021/11/13 13:58:07;;;;;;;24.08;15.43;;;;;;;;;;5046345;28;20423;-65
2021/11/13 14:00:32;;;;;;;22.67;15.27;;;;;;;;;;5045251;28;20060;-64
2021/11/13 14:02:58;;;;;;;23.15;15.10;;;;;;;;;;5043016;28;20287;-65
2021/11/13 14:05:25;;;;;;;23.40;15.35;;;;;;;;;;5048046;28;20028;-63
2021/11/13 14:07:50;;;;;;;23.02;14.60;;;;;;;;;;5038227;28;20033;-64
2021/11/13 14:10:16;;;;;;;23.15;14.93;;;;;;;;;;5048803;28;20036;-63
2021/11/13 14:12:41;;;;;;;23.00;14.98;;;;;;;;;;5043931;28;20021;-64
2021/11/13 14:15:11;;;;;;;25.10;16.46;;;;;;;;;;5045411;28;20048;-64
2021/11/13 14:17:36;;;;;;;23.50;15.60;;;;;;;;;;5037339;28;20127;-65